Terminal Aerodrome Forecast
Issued by NWS

Home | Current Version | Previous Version | Text Only | Print | Product List | Glossary On
Versions: 1 2 3 4 5 6 7 8 9 10 11 12 13 14 15 16
632
FTAK31 PAJN 022323
TAFAGY
TAF
PAGY 022323Z 0300/0324 21014G23KT P6SM VCSH SCT035 OVC050
     FM030300 22012G18KT P6SM BKN050
     FM030700 20003KT P6SM FEW015 BKN050
     FM031900 21011KT P6SM FEW040 BKN060
      AMD LTD TO CLD VIS AND WIND=

USA.gov is the U.S. government's official web portal to all federal, state and local government web resources and services.